Time;durP1;ratioP1;P1;durP2;ratioP2;P2;SDS_P1;SDS_P2;PMS_P1;PMS_P2;Temp;Humidity;BMP_temperature;BMP_pressure;BME280_temperature;BME280_humidity;BME280_pressure;Samples;Min_cycle;Max_cycle;Signal;HPM_P1;HPM_P2
2022/04/16 00:02:01;;;;;;;5.95;5.45;;;10.80;99.90;;;;;;5003177;28;20178;-76
2022/04/16 00:04:27;;;;;;;6.03;5.30;;;10.80;99.90;;;;;;4997343;28;20203;-76
2022/04/16 00:06:54;;;;;;;6.22;5.40;;;10.80;99.90;;;;;;4992478;28;20167;-76
2022/04/16 00:09:20;;;;;;;7.25;6.55;;;10.80;99.90;;;;;;4991299;28;20652;-76
2022/04/16 00:11:46;;;;;;;6.55;5.95;;;10.80;99.90;;;;;;4992094;28;20182;-76
2022/04/16 00:14:12;;;;;;;7.60;6.20;;;10.80;99.90;;;;;;4975016;28;20178;-76
2022/04/16 00:16:38;;;;;;;6.20;5.60;;;10.80;99.90;;;;;;4992167;28;20172;-77
2022/04/16 00:19:04;;;;;;;7.22;6.53;;;10.70;99.90;;;;;;4991683;28;20207;-76
2022/04/16 00:21:30;;;;;;;10.10;6.20;;;10.70;99.90;;;;;;4991952;28;20528;-76
2022/04/16 00:24:02;;;;;;;5.60;5.10;;;10.70;99.90;;;;;;4991417;28;21335;-76
2022/04/16 00:26:28;;;;;;;6.07;5.47;;;10.70;99.90;;;;;;4992391;28;20191;-76
2022/04/16 00:28:54;;;;;;;7.15;6.50;;;10.70;99.90;;;;;;4991447;28;20190;-76
2022/04/16 00:31:21;;;;;;;7.03;6.40;;;10.60;99.90;;;;;;4974337;28;20262;-76
2022/04/16 00:33:47;;;;;;;6.15;5.63;;;10.60;99.90;;;;;;4992132;28;20171;-76
2022/04/16 00:36:14;;;;;;;8.73;6.78;;;10.60;99.90;;;;;;4974419;28;20178;-75
2022/04/16 00:38:41;;;;;;;7.10;6.40;;;10.60;99.90;;;;;;4991271;28;20187;-75
2022/04/16 00:41:07;;;;;;;8.38;7.05;;;10.50;99.90;;;;;;4991743;28;20174;-76
2022/04/16 00:43:33;;;;;;;7.47;6.67;;;10.60;99.90;;;;;;4991945;28;20645;-76
2022/04/16 00:45:59;;;;;;;7.13;6.32;;;10.50;99.90;;;;;;4992242;28;20593;-76
2022/04/16 00:48:26;;;;;;;7.65;6.95;;;10.50;99.90;;;;;;5002759;28;20269;-76
2022/04/16 00:50:53;;;;;;;8.32;6.93;;;10.50;99.90;;;;;;5011131;28;20166;-76
2022/04/16 00:53:20;;;;;;;7.82;7.07;;;10.50;99.90;;;;;;5011034;28;20166;-76
2022/04/16 00:55:46;;;;;;;7.25;6.50;;;10.50;99.90;;;;;;4994051;28;20202;-76
2022/04/16 00:58:12;;;;;;;6.63;5.72;;;10.40;99.90;;;;;;5011013;28;20190;-76
2022/04/16 01:00:38;;;;;;;9.20;8.30;;;10.40;99.90;;;;;;5011180;28;20182;-76
2022/04/16 01:03:05;;;;;;;8.23;7.40;;;10.40;99.90;;;;;;5011473;28;20163;-76
2022/04/16 01:05:31;;;;;;;10.77;8.40;;;10.40;99.90;;;;;;4993841;28;20292;-76
2022/04/16 01:07:58;;;;;;;8.50;7.50;;;10.30;99.90;;;;;;5010387;28;20328;-76
2022/04/16 01:10:29;;;;;;;7.38;6.65;;;10.30;99.90;;;;;;4993510;28;20170;-76
2022/04/16 01:12:57;;;;;;;9.27;8.32;;;10.30;99.90;;;;;;5011279;28;20174;-76
2022/04/16 01:15:23;;;;;;;7.40;6.70;;;10.30;99.90;;;;;;5012209;28;20166;-76
2022/04/16 01:17:51;;;;;;;8.60;7.80;;;10.30;99.90;;;;;;5014636;28;20170;-76
2022/04/16 01:20:18;;;;;;;8.00;7.20;;;10.30;99.90;;;;;;5014500;28;20178;-76
2022/04/16 01:22:45;;;;;;;8.13;7.32;;;10.30;99.90;;;;;;5007932;28;20217;-76
2022/04/16 01:25:11;;;;;;;8.07;7.00;;;10.30;99.90;;;;;;5003805;28;20294;-76
2022/04/16 01:27:43;;;;;;;7.97;7.18;;;10.30;99.90;;;;;;5008680;28;20178;-77
2022/04/16 01:30:11;;;;;;;8.02;6.70;;;10.30;99.90;;;;;;4998237;28;20168;-77
2022/04/16 01:32:37;;;;;;;8.32;7.53;;;10.30;99.90;;;;;;5014586;28;20178;-77
2022/04/16 01:35:05;;;;;;;7.85;7.15;;;10.30;99.90;;;;;;4980885;28;20176;-77
2022/04/16 01:37:34;;;;;;;7.50;6.80;;;10.30;99.90;;;;;;5013835;28;20170;-77
2022/04/16 01:40:00;;;;;;;9.32;7.55;;;10.20;99.90;;;;;;5014384;28;20189;-77
2022/04/16 01:42:29;;;;;;;7.65;6.85;;;10.20;99.90;;;;;;4980685;28;20182;-77
2022/04/16 01:45:05;;;;;;;8.05;7.25;;;10.20;99.90;;;;;;4997027;28;20209;-77
2022/04/16 01:47:36;;;;;;;8.18;7.10;;;10.20;99.90;;;;;;5014132;28;20249;-77
2022/04/16 01:50:05;;;;;;;8.38;7.68;;;10.20;99.90;;;;;;5013942;28;20202;-77
2022/04/16 01:52:32;;;;;;;8.02;7.22;;;10.20;99.90;;;;;;4996964;28;20190;-77
2022/04/16 01:54:59;;;;;;;6.55;5.97;;;10.20;99.90;;;;;;5014320;28;20255;-76
2022/04/16 01:57:25;;;;;;;8.00;7.20;;;10.20;99.90;;;;;;5014016;28;20716;-76
2022/04/16 01:59:50;;;;;;;8.10;7.07;;;10.20;99.90;;;;;;4996493;28;20281;-77
2022/04/16 02:02:17;;;;;;;7.47;6.87;;;10.20;99.90;;;;;;5010061;28;20258;-77
2022/04/16 02:04:43;;;;;;;8.65;7.80;;;10.20;99.90;;;;;;5001929;28;20629;-77
2022/04/16 02:07:10;;;;;;;8.38;6.88;;;10.20;99.90;;;;;;5012678;28;20228;-77
2022/04/16 02:09:36;;;;;;;7.40;6.32;;;10.20;99.90;;;;;;5028311;22;20211;-75
2022/04/16 02:12:02;;;;;;;8.07;7.27;;;10.20;99.90;;;;;;4976878;28;20167;-75
2022/04/16 02:14:29;;;;;;;7.95;7.15;;;10.20;99.90;;;;;;4977108;28;20585;-75
2022/04/16 02:16:54;;;;;;;7.85;7.18;;;10.20;99.90;;;;;;4994434;28;20171;-75
2022/04/16 02:19:20;;;;;;;8.40;7.50;;;10.20;99.90;;;;;;4993610;28;20236;-74
2022/04/16 02:21:47;;;;;;;9.98;9.07;;;10.20;99.90;;;;;;4976522;28;20177;-75
2022/04/16 02:24:13;;;;;;;7.90;7.10;;;10.10;99.90;;;;;;4994366;28;20301;-75
2022/04/16 02:26:45;;;;;;;8.37;7.47;;;10.10;99.90;;;;;;4993465;28;20276;-75
2022/04/16 02:29:12;;;;;;;10.02;8.73;;;10.10;99.90;;;;;;4975844;28;20708;-75
2022/04/16 02:31:38;;;;;;;8.65;7.75;;;10.10;99.90;;;;;;4993752;28;20174;-75
2022/04/16 02:34:05;;;;;;;7.90;7.20;;;10.10;99.90;;;;;;4994017;28;20211;-75
2022/04/16 02:36:31;;;;;;;9.43;8.52;;;10.00;99.90;;;;;;4993792;28;20175;-75
2022/04/16 02:38:57;;;;;;;8.65;7.43;;;10.00;99.90;;;;;;4993505;28;20249;-75
2022/04/16 02:41:24;;;;;;;8.23;7.43;;;10.00;99.90;;;;;;4993455;28;20171;-75
2022/04/16 02:43:50;;;;;;;9.18;7.97;;;10.00;99.90;;;;;;4976075;28;20598;-75
2022/04/16 02:49:00;;;;;;;7.80;7.00;;;10.00;99.90;;;;;;4992971;28;20726;-75
2022/04/16 02:51:27;;;;;;;10.23;8.50;;;10.00;99.90;;;;;;4993367;28;20266;-74
2022/04/16 02:53:52;;;;;;;9.50;8.10;;;10.00;99.90;;;;;;4993741;28;20199;-75
2022/04/16 02:56:18;;;;;;;8.27;7.43;;;9.90;99.90;;;;;;4993664;28;20174;-75
2022/04/16 02:58:44;;;;;;;7.80;7.00;;;9.90;99.90;;;;;;4993051;28;20599;-74
2022/04/16 03:01:10;;;;;;;7.83;7.10;;;9.90;99.90;;;;;;4993169;28;20936;-75
2022/04/16 03:03:35;;;;;;;7.67;6.87;;;9.80;99.90;;;;;;4993219;28;20175;-75
2022/04/16 03:06:01;;;;;;;8.37;7.47;;;9.80;99.90;;;;;;4993322;28;20623;-74
2022/04/16 03:08:28;;;;;;;9.10;8.20;;;9.70;99.90;;;;;;4992726;28;20194;-75
2022/04/16 03:10:55;;;;;;;8.60;7.80;;;9.70;99.90;;;;;;4992807;28;21053;-74
2022/04/16 03:13:21;;;;;;;8.30;7.50;;;9.70;99.90;;;;;;4975719;28;20578;-74
2022/04/16 03:18:32;;;;;;;8.80;7.70;;;9.60;99.90;;;;;;4992374;28;20578;-74
2022/04/16 03:21:01;;;;;;;9.70;7.57;;;9.60;99.90;;;;;;4991642;28;20178;-74
2022/04/16 03:23:28;;;;;;;8.35;7.45;;;9.50;99.90;;;;;;4997125;28;20171;-74
2022/04/16 03:25:56;;;;;;;8.20;7.38;;;9.50;99.90;;;;;;4986768;28;20224;-75
2022/04/16 03:28:22;;;;;;;9.20;7.63;;;9.50;99.90;;;;;;5011944;28;20531;-76
2022/04/16 03:30:48;;;;;;;8.75;7.85;;;9.40;99.90;;;;;;5012087;28;20548;-75
2022/04/16 03:33:14;;;;;;;10.23;8.20;;;9.40;99.90;;;;;;5012227;28;20170;-75
2022/04/16 03:35:39;;;;;;;9.37;8.50;;;9.40;99.90;;;;;;4995005;28;20475;-75
2022/04/16 03:38:05;;;;;;;10.40;8.50;;;9.40;99.90;;;;;;4994074;28;20175;-75
2022/04/16 03:40:31;;;;;;;9.10;8.20;;;9.30;99.90;;;;;;5012172;28;20686;-75
2022/04/16 03:42:59;;;;;;;9.73;8.77;;;9.30;99.90;;;;;;4994799;28;20580;-76
2022/04/16 03:45:27;;;;;;;8.48;7.70;;;9.30;99.90;;;;;;5012175;28;20667;-75
2022/04/16 03:47:55;;;;;;;9.93;8.93;;;9.30;99.90;;;;;;5011649;28;20167;-75
2022/04/16 03:50:22;;;;;;;9.00;8.10;;;9.20;99.90;;;;;;5011786;28;20543;-75
2022/04/16 03:52:50;;;;;;;10.25;9.23;;;9.20;99.90;;;;;;5012110;28;20252;-75
2022/04/16 04:00:46;;;;;;;8.45;7.72;;;9.20;99.90;;;;;;5011576;28;20190;-75
2022/04/16 04:03:12;;;;;;;8.60;7.70;;;9.10;99.90;;;;;;5012110;28;20162;-75
2022/04/16 04:05:39;;;;;;;10.85;7.85;;;9.10;99.90;;;;;;4993904;28;20616;-75
2022/04/16 04:08:07;;;;;;;9.32;8.05;;;9.10;99.90;;;;;;5006604;28;20175;-75
2022/04/16 04:10:33;;;;;;;11.85;8.77;;;9.00;99.90;;;;;;4969077;28;20206;-75
2022/04/16 04:12:59;;;;;;;10.65;9.55;;;9.00;99.90;;;;;;5011847;28;20205;-75
2022/04/16 04:15:27;;;;;;;11.30;8.80;;;9.00;99.90;;;;;;5011609;28;20167;-75
2022/04/16 04:17:53;;;;;;;9.30;8.40;;;9.00;99.90;;;;;;5011369;28;20237;-75
2022/04/16 04:20:19;;;;;;;9.50;8.52;;;9.00;99.90;;;;;;5011471;28;20190;-76
2022/04/16 04:22:45;;;;;;;9.82;8.82;;;8.90;99.90;;;;;;5012026;28;20174;-76
2022/04/16 04:25:11;;;;;;;10.03;8.70;;;8.90;99.90;;;;;;5012565;28;20285;-76
2022/04/16 04:27:37;;;;;;;9.40;8.40;;;8.90;99.90;;;;;;4993933;28;20737;-75
2022/04/16 04:30:04;;;;;;;9.23;8.33;;;8.90;99.90;;;;;;5011665;28;20581;-76
2022/04/16 04:32:30;;;;;;;10.20;9.20;;;8.90;99.90;;;;;;5011935;28;20581;-76
2022/04/16 04:34:55;;;;;;;9.77;8.77;;;8.90;99.90;;;;;;5011661;28;20267;-75
2022/04/16 04:37:22;;;;;;;9.90;8.03;;;8.90;99.90;;;;;;5011019;28;20609;-75
2022/04/16 04:39:48;;;;;;;10.93;9.80;;;8.80;99.90;;;;;;4993752;28;20201;-76
2022/04/16 04:42:23;;;;;;;10.50;8.98;;;8.80;99.90;;;;;;5009520;28;20178;-76
2022/04/16 04:44:48;;;;;;;11.13;9.02;;;8.80;99.90;;;;;;4971192;28;20207;-75
2022/04/16 04:47:14;;;;;;;10.40;8.33;;;8.80;99.90;;;;;;4979075;28;20186;-75
2022/04/16 04:49:40;;;;;;;10.10;9.10;;;8.80;99.90;;;;;;4991687;28;20197;-76
2022/04/16 04:52:06;;;;;;;9.80;8.90;;;8.80;99.90;;;;;;4995740;28;20171;-75
2022/04/16 04:54:32;;;;;;;9.52;8.52;;;8.80;99.90;;;;;;4980487;28;20552;-75
2022/04/16 04:56:57;;;;;;;14.77;11.60;;;8.80;99.90;;;;;;4995525;28;20178;-75
2022/04/16 04:59:23;;;;;;;12.37;10.13;;;8.80;99.90;;;;;;4995331;28;20195;-75
2022/04/16 05:01:49;;;;;;;10.77;9.70;;;8.80;99.90;;;;;;4995539;28;20651;-75
2022/04/16 05:04:15;;;;;;;8.63;7.60;;;8.80;99.90;;;;;;4995676;28;20229;-75
2022/04/16 05:06:40;;;;;;;10.47;9.40;;;8.90;99.90;;;;;;4995397;28;20174;-75
2022/04/16 05:09:06;;;;;;;9.40;8.50;;;8.90;99.90;;;;;;4994948;28;20245;-76
2022/04/16 05:11:31;;;;;;;8.83;7.83;;;8.90;99.90;;;;;;4994984;28;20171;-75
2022/04/16 05:13:57;;;;;;;10.37;8.80;;;8.90;99.90;;;;;;4995534;28;20171;-75
2022/04/16 05:16:23;;;;;;;10.80;9.70;;;9.00;99.90;;;;;;4961778;28;20199;-75
2022/04/16 05:18:50;;;;;;;14.65;9.35;;;9.00;99.90;;;;;;4994976;28;20171;-75
2022/04/16 05:21:16;;;;;;;11.43;10.23;;;9.10;99.90;;;;;;4994945;28;20166;-76
2022/04/16 05:23:41;;;;;;;11.43;10.17;;;9.10;99.90;;;;;;4977543;28;20646;-76
2022/04/16 05:26:11;;;;;;;10.87;9.77;;;9.10;99.90;;;;;;4995189;28;20202;-75
2022/04/16 05:28:38;;;;;;;12.05;10.75;;;9.20;99.90;;;;;;4994607;28;20262;-75
2022/04/16 05:31:05;;;;;;;11.43;9.65;;;9.20;99.90;;;;;;4994699;28;20175;-75
2022/04/16 05:36:15;;;;;;;10.35;9.35;;;9.30;99.90;;;;;;4995099;28;20214;-75
2022/04/16 05:38:47;;;;;;;10.50;9.40;;;9.40;99.90;;;;;;4994495;28;20190;-76
2022/04/16 05:41:13;;;;;;;9.85;8.85;;;9.40;99.90;;;;;;4994428;28;20961;-76
2022/04/16 05:43:39;;;;;;;10.53;9.53;;;9.50;99.90;;;;;;4977466;28;20198;-75
2022/04/16 05:46:05;;;;;;;10.20;9.20;;;9.50;99.90;;;;;;4994816;28;20990;-75
2022/04/16 05:48:30;;;;;;;11.30;10.10;;;9.60;99.90;;;;;;4994320;28;20223;-75
2022/04/16 05:50:57;;;;;;;12.90;10.23;;;9.70;99.90;;;;;;4984800;28;20183;-76
2022/04/16 05:53:24;;;;;;;9.82;8.00;;;9.80;99.90;;;;;;4977292;28;20530;-75
2022/04/16 05:55:53;;;;;;;11.57;10.32;;;9.80;99.90;;;;;;4994454;28;20163;-75
2022/04/16 05:58:19;;;;;;;12.05;10.38;;;9.90;99.90;;;;;;4992487;28;20191;-75
2022/04/16 06:00:45;;;;;;;11.25;10.07;;;10.00;99.90;;;;;;4988290;28;20234;-75
2022/04/16 06:03:11;;;;;;;11.43;10.27;;;10.00;99.90;;;;;;4979058;28;20186;-76
2022/04/16 06:05:37;;;;;;;11.80;10.35;;;10.10;99.90;;;;;;4992398;28;20216;-75
2022/04/16 06:08:03;;;;;;;10.80;9.73;;;10.20;99.90;;;;;;4993856;28;20181;-75
2022/04/16 06:10:29;;;;;;;11.18;10.18;;;10.30;99.90;;;;;;5004033;28;20256;-75
2022/04/16 06:12:54;;;;;;;9.90;8.90;;;10.40;99.90;;;;;;4994911;28;20565;-75
2022/04/16 06:15:22;;;;;;;12.03;10.60;;;10.50;99.90;;;;;;5003367;28;20225;-75
2022/04/16 06:17:47;;;;;;;10.10;9.20;;;10.60;99.90;;;;;;4980061;28;20178;-74
2022/04/16 06:20:14;;;;;;;10.90;9.80;;;10.70;99.90;;;;;;4992447;28;20209;-76
2022/04/16 06:22:40;;;;;;;11.98;10.73;;;10.80;99.90;;;;;;4989777;28;20578;-76
2022/04/16 06:25:08;;;;;;;9.93;8.70;;;10.90;99.90;;;;;;4993539;28;20770;-76
2022/04/16 06:27:38;;;;;;;10.40;9.25;;;11.00;99.90;;;;;;4976086;28;20686;-76
2022/04/16 06:30:05;;;;;;;10.95;9.63;;;11.20;99.90;;;;;;4993429;28;20195;-76
2022/04/16 06:32:31;;;;;;;9.25;8.32;;;11.70;99.90;;;;;;4993851;28;20175;-76
2022/04/16 06:34:57;;;;;;;9.70;8.70;;;12.70;99.90;;;;;;4993889;28;20229;-77
2022/04/16 06:37:22;;;;;;;8.27;7.47;;;13.80;99.90;;;;;;4993275;28;20175;-77
2022/04/16 06:39:48;;;;;;;8.13;7.33;;;15.00;99.90;;;;;;4993284;28;20594;-76
2022/04/16 06:42:14;;;;;;;7.77;7.07;;;16.20;99.90;;;;;;4993558;28;20677;-76
2022/04/16 06:44:39;;;;;;;9.77;8.87;;;17.30;99.90;;;;;;4993588;28;20221;-77
2022/04/16 06:47:05;;;;;;;8.00;7.30;;;18.40;99.90;;;;;;4993015;28;20171;-77
2022/04/16 06:49:31;;;;;;;8.77;7.90;;;19.40;99.90;;;;;;4991465;28;20667;-77
2022/04/16 06:51:56;;;;;;;8.60;7.20;;;20.40;99.90;;;;;;4975557;28;20210;-77
2022/04/16 06:54:22;;;;;;;7.80;7.10;;;21.30;99.90;;;;;;4982338;28;20175;-77
2022/04/16 06:56:48;;;;;;;7.40;6.70;;;22.20;99.90;;;;;;4992817;28;20206;-77
2022/04/16 06:59:14;;;;;;;8.40;7.60;;;22.90;99.90;;;;;;4992583;28;20195;-77
2022/04/16 07:01:39;;;;;;;7.30;6.70;;;23.50;99.90;;;;;;4975810;28;20266;-78
2022/04/16 07:04:05;;;;;;;7.03;6.43;;;24.10;99.90;;;;;;4993283;28;20202;-77
2022/04/16 07:06:31;;;;;;;7.43;6.80;;;24.70;99.90;;;;;;4993278;28;20172;-76
2022/04/16 07:08:56;;;;;;;7.30;6.60;;;25.40;99.90;;;;;;4974742;28;20213;-75
2022/04/16 07:11:22;;;;;;;6.30;5.70;;;26.10;99.90;;;;;;4975438;28;20258;-75
2022/04/16 07:13:48;;;;;;;6.23;5.70;;;26.80;99.90;;;;;;4992779;28;20643;-75
2022/04/16 07:16:13;;;;;;;6.50;5.93;;;27.30;98.90;;;;;;4993132;28;20180;-75
2022/04/16 07:18:39;;;;;;;6.17;5.60;;;27.60;96.60;;;;;;4992627;28;20566;-76
2022/04/16 07:21:05;;;;;;;6.77;6.17;;;27.90;94.90;;;;;;4992802;28;20201;-76
2022/04/16 07:23:30;;;;;;;7.10;6.50;;;28.40;93.90;;;;;;4975646;28;20163;-75
2022/04/16 07:25:56;;;;;;;6.23;5.73;;;28.70;90.80;;;;;;4993076;28;20578;-76
2022/04/16 07:28:22;;;;;;;6.23;5.70;;;29.00;89.10;;;;;;4992633;28;20562;-76
2022/04/16 07:30:49;;;;;;;6.23;5.73;;;29.40;88.00;;;;;;4993323;28;20179;-75
2022/04/16 07:33:15;;;;;;;5.87;5.37;;;29.70;83.90;;;;;;4993557;28;20198;-76
2022/04/16 07:35:41;;;;;;;7.67;6.87;;;30.00;81.90;;;;;;4994000;28;20566;-76
2022/04/16 07:38:06;;;;;;;5.87;5.37;;;30.00;74.10;;;;;;4975085;28;20577;-76
2022/04/16 07:40:34;;;;;;;7.97;6.83;;;30.00;72.30;;;;;;4992870;28;20190;-75
2022/04/16 07:43:01;;;;;;;9.77;7.73;;;30.20;72.60;;;;;;4993298;28;20268;-76
2022/04/16 07:45:28;;;;;;;5.20;4.80;;;30.40;70.60;;;;;;4992803;28;20957;-75
2022/04/16 07:47:53;;;;;;;5.60;5.10;;;30.50;68.50;;;;;;4992422;28;20597;-75
2022/04/16 07:50:19;;;;;;;6.73;6.13;;;30.60;67.00;;;;;;4992236;28;20590;-76
2022/04/16 07:52:46;;;;;;;5.73;5.23;;;30.70;65.10;;;;;;4975215;28;20164;-75
2022/04/16 07:55:12;;;;;;;6.93;6.33;;;30.90;64.80;;;;;;4992528;28;20625;-77
2022/04/16 07:57:38;;;;;;;7.87;7.17;;;30.60;57.10;;;;;;4992073;28;20574;-77
2022/04/16 08:00:05;;;;;;;6.77;6.10;;;30.70;58.30;;;;;;4990905;28;20632;-76
2022/04/16 08:02:37;;;;;;;6.43;5.30;;;30.70;57.80;;;;;;4985364;28;20235;-76
2022/04/16 08:05:03;;;;;;;6.23;5.60;;;30.80;58.60;;;;;;4991793;28;20663;-76
2022/04/16 08:07:30;;;;;;;6.83;6.20;;;30.90;57.40;;;;;;4980689;28;20586;-76
2022/04/16 08:09:56;;;;;;;7.30;6.70;;;31.10;57.20;;;;;;4992248;28;20618;-75
2022/04/16 08:12:21;;;;;;;6.30;5.80;;;31.20;55.90;;;;;;4992172;28;20629;-74
2022/04/16 08:14:47;;;;;;;7.13;6.40;;;31.20;55.00;;;;;;4992375;28;20170;-74
2022/04/16 08:17:13;;;;;;;7.10;6.40;;;31.00;54.00;;;;;;4991690;28;20171;-74
2022/04/16 08:19:39;;;;;;;5.37;4.87;;;31.00;54.40;;;;;;4991410;28;20638;-74
2022/04/16 08:22:07;;;;;;;6.40;5.90;;;31.30;54.40;;;;;;4974818;28;20177;-74
2022/04/16 08:27:02;;;;;;;5.70;5.20;;;31.30;50.80;;;;;;4991442;28;20569;-75
2022/04/16 08:29:28;;;;;;;4.73;4.33;;;31.30;51.30;;;;;;4991250;28;20608;-74
2022/04/16 08:31:54;;;;;;;5.40;4.90;;;31.40;51.70;;;;;;4973983;28;20574;-75
2022/04/16 08:34:20;;;;;;;5.50;5.00;;;31.70;50.80;;;;;;4974384;28;20308;-74
2022/04/16 08:36:45;;;;;;;4.73;4.40;;;31.50;49.10;;;;;;4991842;28;20192;-75
2022/04/16 08:39:11;;;;;;;5.50;5.00;;;31.50;49.00;;;;;;4991357;28;20191;-75
2022/04/16 08:41:39;;;;;;;4.80;4.40;;;31.20;46.60;;;;;;4991637;28;20177;-75
2022/04/16 08:44:05;;;;;;;4.40;4.00;;;31.30;48.30;;;;;;4974701;28;20720;-74
2022/04/16 08:46:32;;;;;;;4.60;4.20;;;31.40;48.20;;;;;;4974676;28;20580;-74
2022/04/16 08:48:59;;;;;;;3.87;3.57;;;31.70;48.20;;;;;;4991048;28;20623;-75
2022/04/16 08:51:29;;;;;;;4.00;3.60;;;32.00;47.50;;;;;;4992269;28;20659;-75
2022/04/16 08:53:55;;;;;;;3.67;3.37;;;32.30;46.70;;;;;;4991849;28;20608;-74
2022/04/16 08:56:21;;;;;;;3.00;2.70;;;32.40;46.40;;;;;;4991590;28;21127;-74
2022/04/16 08:58:46;;;;;;;3.83;3.40;;;32.10;45.80;;;;;;4991316;28;20563;-75
2022/04/16 09:01:12;;;;;;;2.90;2.50;;;31.80;44.80;;;;;;4991585;28;20628;-74
2022/04/16 09:03:40;;;;;;;3.83;2.70;;;31.50;44.50;;;;;;4991647;28;20244;-74
2022/04/16 09:06:07;;;;;;;2.90;2.60;;;30.70;42.90;;;;;;4991606;28;20215;-74
2022/04/16 09:08:44;;;;;;;3.50;3.20;;;30.10;43.20;;;;;;4997755;28;20672;-74
2022/04/16 09:11:12;;;;;;;2.57;2.37;;;30.00;43.10;;;;;;4991448;28;20574;-73
2022/04/16 09:13:50;;;;;;;2.87;2.60;;;29.90;43.10;;;;;;4991745;28;20572;-73
2022/04/16 09:16:17;;;;;;;3.77;2.80;;;29.50;43.10;;;;;;4973984;28;21141;-74
2022/04/16 09:18:50;;;;;;;4.50;3.10;;;29.10;42.80;;;;;;4973551;28;20618;-74
2022/04/16 09:21:17;;;;;;;2.83;2.27;;;28.70;43.40;;;;;;4991062;28;21297;-74
2022/04/16 09:23:53;;;;;;;2.23;1.77;;;28.60;44.10;;;;;;4973865;28;20578;-73
2022/04/16 09:26:26;;;;;;;1.97;1.50;;;28.70;44.00;;;;;;4957745;28;20953;-74
2022/04/16 09:28:51;;;;;;;2.70;1.40;;;29.00;44.10;;;;;;4973409;28;20585;-74
2022/04/16 09:31:18;;;;;;;1.60;1.30;;;29.40;44.70;;;;;;4973190;28;20615;-74
2022/04/16 09:33:45;;;;;;;1.80;1.23;;;29.90;44.60;;;;;;4981720;28;20171;-74
2022/04/16 09:36:10;;;;;;;1.97;1.40;;;30.20;42.90;;;;;;4992681;28;20589;-74
2022/04/16 09:38:42;;;;;;;1.80;1.30;;;30.60;43.30;;;;;;5014007;28;20569;-73
2022/04/16 09:41:08;;;;;;;1.37;0.90;;;31.00;43.00;;;;;;5014103;28;20186;-74
2022/04/16 09:43:37;;;;;;;1.60;1.10;;;31.20;41.80;;;;;;5014422;28;20567;-74
2022/04/16 09:46:13;;;;;;;1.50;1.10;;;31.20;41.10;;;;;;5014372;28;21094;-73
2022/04/16 09:48:39;;;;;;;1.60;1.10;;;30.80;39.10;;;;;;5013549;28;20564;-74
2022/04/16 09:51:05;;;;;;;1.83;1.30;;;30.40;39.90;;;;;;5013996;28;20964;-73
2022/04/16 09:53:31;;;;;;;1.80;1.37;;;30.30;39.50;;;;;;5014297;28;20912;-74
2022/04/16 09:56:01;;;;;;;1.70;1.10;;;30.10;39.90;;;;;;5014238;28;20569;-74
2022/04/16 09:58:38;;;;;;;1.90;1.20;;;29.70;39.30;;;;;;5013758;28;20925;-74
2022/04/16 10:01:04;;;;;;;2.30;0.90;;;29.30;39.30;;;;;;5013755;28;20915;-74
2022/04/16 10:03:32;;;;;;;1.90;1.17;;;28.80;38.80;;;;;;5009318;28;20594;-75
2022/04/16 10:05:59;;;;;;;1.60;0.97;;;28.50;40.00;;;;;;5005604;28;20621;-74
2022/04/16 10:08:31;;;;;;;1.43;0.87;;;28.50;39.80;;;;;;5013438;28;20568;-74
2022/04/16 10:10:57;;;;;;;1.73;0.87;;;28.40;39.30;;;;;;5013264;28;20716;-74
2022/04/16 10:13:24;;;;;;;2.53;1.00;;;28.30;40.70;;;;;;5013888;28;20916;-73
2022/04/16 10:16:09;;;;;;;1.60;0.97;;;28.10;39.70;;;;;;4995994;28;20582;-75
2022/04/16 10:18:37;;;;;;;1.40;0.90;;;28.20;40.60;;;;;;5012959;28;20570;-74
2022/04/16 10:21:04;;;;;;;3.43;0.87;;;28.70;41.40;;;;;;5013454;28;20569;-74
2022/04/16 10:23:31;;;;;;;1.60;0.80;;;29.30;41.70;;;;;;5013375;28;20987;-74
2022/04/16 10:26:12;;;;;;;2.10;0.73;;;29.90;41.60;;;;;;4996214;28;20626;-75
2022/04/16 10:28:41;;;;;;;1.50;0.80;;;30.30;40.90;;;;;;5000855;28;20631;-74
2022/04/16 10:31:21;;;;;;;1.50;0.80;;;30.30;39.60;;;;;;5004396;28;20573;-74
2022/04/16 10:34:05;;;;;;;1.43;0.80;;;30.10;37.30;;;;;;5013563;28;20569;-75
2022/04/16 10:36:33;;;;;;;1.40;1.00;;;29.80;37.60;;;;;;4996011;28;20932;-74
2022/04/16 10:39:15;;;;;;;1.73;1.00;;;29.70;37.60;;;;;;4979018;28;20616;-74
2022/04/16 10:41:56;;;;;;;2.53;1.07;;;29.30;36.70;;;;;;5013069;28;20922;-74
2022/04/16 10:44:22;;;;;;;1.87;0.93;;;28.90;36.30;;;;;;5013245;28;20613;-74
2022/04/16 10:46:49;;;;;;;1.60;0.90;;;28.30;36.30;;;;;;5013286;28;20585;-74
2022/04/16 10:49:17;;;;;;;1.80;1.03;;;28.10;37.40;;;;;;5011698;28;20590;-74
2022/04/16 10:51:43;;;;;;;1.30;0.70;;;28.10;37.80;;;;;;5012839;28;20558;-74
2022/04/16 10:54:11;;;;;;;1.43;0.80;;;27.90;37.70;;;;;;4979381;28;21056;-74
2022/04/16 10:56:39;;;;;;;1.43;0.80;;;27.80;38.00;;;;;;5013006;28;21106;-73
2022/04/16 10:59:08;;;;;;;1.93;0.80;;;27.70;37.20;;;;;;5012257;28;20629;-74
2022/04/16 11:01:34;;;;;;;2.50;0.80;;;27.80;38.40;;;;;;5012774;28;20566;-74
2022/04/16 11:04:14;;;;;;;1.70;1.00;;;28.10;38.90;;;;;;5012806;28;20992;-74
2022/04/16 11:06:45;;;;;;;2.27;0.97;;;28.20;38.60;;;;;;5012958;28;20870;-74
2022/04/16 11:09:12;;;;;;;3.23;0.93;;;28.20;37.20;;;;;;5005780;28;20623;-74
2022/04/16 11:11:41;;;;;;;1.57;0.90;;;28.20;38.00;;;;;;4992923;28;20670;-75
2022/04/16 11:14:10;;;;;;;1.30;0.80;;;28.20;37.50;;;;;;4993006;28;20603;-74
2022/04/16 11:16:46;;;;;;;1.20;0.60;;;28.10;37.10;;;;;;4993122;28;20565;-74
2022/04/16 11:19:14;;;;;;;1.80;0.80;;;28.20;38.10;;;;;;4974966;28;20841;-74
2022/04/16 11:21:40;;;;;;;1.50;0.80;;;28.20;37.30;;;;;;4975354;28;20574;-74
2022/04/16 11:24:06;;;;;;;1.70;0.90;;;27.80;36.40;;;;;;4992813;28;20574;-75
2022/04/16 11:34:52;;;;;;;1.57;0.93;;;27.10;37.60;;;;;;4992750;28;20570;-74
2022/04/16 11:37:19;;;;;;;2.27;0.70;;;27.20;38.10;;;;;;4995052;28;20581;-74
2022/04/16 11:39:48;;;;;;;1.53;1.00;;;27.40;38.10;;;;;;4987129;28;20602;-74
2022/04/16 11:42:14;;;;;;;1.37;0.70;;;27.30;35.80;;;;;;4987513;28;20615;-74
2022/04/16 11:44:42;;;;;;;1.53;0.90;;;27.00;36.10;;;;;;4974840;28;20672;-74
2022/04/16 11:47:09;;;;;;;1.70;1.07;;;26.80;36.00;;;;;;4992065;28;20681;-75
2022/04/16 11:49:36;;;;;;;1.83;1.00;;;26.40;35.90;;;;;;4990974;28;21276;-75
2022/04/16 11:52:02;;;;;;;1.70;0.90;;;26.20;36.60;;;;;;4992517;28;21098;-74
2022/04/16 11:54:29;;;;;;;1.60;0.90;;;26.10;36.70;;;;;;4989735;28;21185;-75
2022/04/16 11:56:56;;;;;;;1.63;0.80;;;26.10;37.20;;;;;;4966897;28;20585;-74
2022/04/16 11:59:24;;;;;;;2.50;1.10;;;26.00;36.80;;;;;;5009576;28;20700;-74
2022/04/16 12:02:07;;;;;;;1.50;0.80;;;26.10;37.00;;;;;;4974685;28;20582;-74
2022/04/16 12:04:40;;;;;;;1.50;0.83;;;25.80;36.60;;;;;;4975233;28;20628;-74
2022/04/16 12:07:17;;;;;;;2.10;1.47;;;25.80;36.80;;;;;;4991891;28;20926;-75
2022/04/16 12:09:50;;;;;;;2.37;1.30;;;25.60;36.00;;;;;;4972234;28;20638;-75
2022/04/16 12:12:22;;;;;;;1.67;1.10;;;25.60;37.10;;;;;;4989843;28;20735;-75
2022/04/16 12:14:50;;;;;;;1.60;1.03;;;25.60;37.50;;;;;;4990149;28;20661;-74
2022/04/16 12:17:26;;;;;;;1.63;0.90;;;25.70;37.60;;;;;;4989903;28;20567;-74
2022/04/16 12:19:56;;;;;;;1.93;0.93;;;25.70;37.80;;;;;;4989876;28;21085;-74
2022/04/16 12:22:22;;;;;;;1.47;0.87;;;25.80;37.70;;;;;;4972677;28;20558;-74
2022/04/16 12:24:48;;;;;;;1.60;0.80;;;25.80;37.80;;;;;;4973304;28;20679;-74
2022/04/16 12:27:27;;;;;;;2.10;0.90;;;25.80;38.00;;;;;;4998755;28;20635;-74
2022/04/16 12:29:56;;;;;;;1.50;1.00;;;25.70;37.20;;;;;;5000458;28;20186;-74
2022/04/16 12:32:28;;;;;;;1.60;0.97;;;25.60;37.60;;;;;;4994513;28;20661;-75
2022/04/16 12:34:54;;;;;;;1.60;0.83;;;25.60;37.80;;;;;;5005094;28;20573;-74
2022/04/16 12:37:21;;;;;;;1.73;0.90;;;25.50;37.70;;;;;;5004825;28;20613;-75
2022/04/16 12:39:48;;;;;;;1.50;0.90;;;25.30;37.30;;;;;;4997269;28;20617;-74
2022/04/16 12:42:14;;;;;;;1.53;1.00;;;25.20;37.10;;;;;;4993867;28;20931;-74
2022/04/16 12:44:40;;;;;;;2.40;1.00;;;25.00;36.60;;;;;;4982053;28;20648;-74
2022/04/16 12:47:07;;;;;;;3.20;1.30;;;24.60;36.10;;;;;;4983695;28;20595;-74
2022/04/16 12:49:33;;;;;;;2.93;1.17;;;24.20;36.00;;;;;;5000042;28;20605;-74
2022/04/16 12:51:59;;;;;;;3.10;1.00;;;23.90;36.30;;;;;;4993751;28;20921;-74
2022/04/16 12:54:24;;;;;;;2.97;1.00;;;23.70;36.80;;;;;;4983000;28;20700;-74
2022/04/16 12:56:50;;;;;;;1.50;0.90;;;23.50;36.80;;;;;;4998601;28;20582;-74
2022/04/16 12:59:16;;;;;;;2.47;0.90;;;23.40;36.80;;;;;;4991737;28;20286;-75
2022/04/16 13:01:42;;;;;;;1.80;1.20;;;23.20;36.50;;;;;;4990954;28;20259;-74
2022/04/16 13:04:08;;;;;;;2.70;1.00;;;23.00;36.40;;;;;;4991061;28;20585;-73
2022/04/16 13:06:33;;;;;;;2.27;1.10;;;22.80;36.40;;;;;;4992706;28;20578;-74
2022/04/16 13:09:02;;;;;;;1.93;1.10;;;22.40;36.30;;;;;;4991414;28;20217;-74
2022/04/16 13:11:28;;;;;;;2.77;1.43;;;22.00;36.40;;;;;;4992213;28;20171;-73
2022/04/16 13:13:55;;;;;;;2.17;1.27;;;21.80;36.70;;;;;;5003270;28;20673;-73